createdAt,value
2019-05-18T00:02:29.801Z,99.90
2019-05-18T00:05:00.925Z,99.90
2019-05-18T00:07:32.203Z,99.90
2019-05-18T00:10:03.553Z,99.90
2019-05-18T00:12:34.823Z,99.90
2019-05-18T00:15:06.165Z,99.90
2019-05-18T00:17:37.693Z,99.90
2019-05-18T00:20:09.661Z,99.90
2019-05-18T00:22:41.209Z,99.90
2019-05-18T00:25:12.693Z,99.90
2019-05-18T00:27:43.889Z,99.90
2019-05-18T00:30:15.308Z,99.90
2019-05-18T00:32:46.496Z,99.90
2019-05-18T00:35:17.671Z,99.90
2019-05-18T00:37:48.947Z,99.90
2019-05-18T00:40:20.564Z,99.90
2019-05-18T00:42:51.711Z,99.90
2019-05-18T00:45:22.889Z,99.90
2019-05-18T00:47:54.106Z,99.90
2019-05-18T00:50:25.444Z,99.90
2019-05-18T00:52:56.795Z,99.90
2019-05-18T00:55:28.401Z,99.90
2019-05-18T00:57:59.808Z,99.90
2019-05-18T01:00:31.388Z,99.90
2019-05-18T01:03:02.670Z,99.90
2019-05-18T01:05:34.018Z,99.90
2019-05-18T01:08:05.416Z,99.90
2019-05-18T01:10:36.763Z,99.90
2019-05-18T01:13:08.990Z,99.90
2019-05-18T01:15:40.344Z,99.90
2019-05-18T01:18:12.057Z,99.90
2019-05-18T01:20:43.670Z,99.90
2019-05-18T01:23:15.026Z,99.90
2019-05-18T01:25:46.343Z,99.90
2019-05-18T01:28:17.598Z,99.90
2019-05-18T01:30:48.976Z,99.90
2019-05-18T01:33:20.243Z,99.90
2019-05-18T01:35:52.069Z,99.90
2019-05-18T01:38:23.313Z,99.90
2019-05-18T01:40:54.788Z,99.90
2019-05-18T01:43:26.321Z,99.90
2019-05-18T01:45:57.670Z,99.90
2019-05-18T01:48:28.938Z,99.90
2019-05-18T01:51:00.064Z,99.90
2019-05-18T01:53:31.238Z,99.90
2019-05-18T01:56:02.433Z,99.90
2019-05-18T01:58:33.694Z,99.90
2019-05-18T02:01:05.109Z,99.90
2019-05-18T02:03:36.533Z,99.90
2019-05-18T02:06:08.119Z,99.90
2019-05-18T02:08:39.715Z,99.90
2019-05-18T02:11:10.986Z,99.90
2019-05-18T02:13:42.897Z,99.90
2019-05-18T02:16:14.144Z,99.90
2019-05-18T02:18:45.283Z,99.90
2019-05-18T02:21:16.549Z,99.90
2019-05-18T02:23:48.115Z,99.90
2019-05-18T02:26:19.303Z,99.90
2019-05-18T02:28:50.643Z,99.90
2019-05-18T02:31:21.969Z,99.90
2019-05-18T02:33:53.629Z,99.90
2019-05-18T02:36:25.087Z,99.90
2019-05-18T02:38:56.266Z,99.90
2019-05-18T02:41:27.462Z,99.90
2019-05-18T02:43:58.802Z,99.90
2019-05-18T02:46:30.168Z,99.90
2019-05-18T02:49:01.861Z,99.90
2019-05-18T02:51:33.485Z,99.90
2019-05-18T02:54:04.949Z,99.90
2019-05-18T02:56:36.863Z,99.90
2019-05-18T02:59:08.190Z,99.90
2019-05-18T03:01:39.794Z,99.90
2019-05-18T03:04:11.070Z,99.90
2019-05-18T03:06:42.499Z,99.90
2019-05-18T03:09:14.049Z,99.90
2019-05-18T03:11:45.497Z,99.90
2019-05-18T03:14:16.820Z,99.90
2019-05-18T03:16:49.222Z,99.90
2019-05-18T03:19:20.555Z,99.90
2019-05-18T03:21:51.938Z,99.90
2019-05-18T03:24:23.276Z,99.90
2019-05-18T03:26:54.723Z,99.90
2019-05-18T03:29:25.895Z,99.90
2019-05-18T03:31:57.132Z,99.90
2019-05-18T03:34:28.680Z,99.90
2019-05-18T03:36:59.774Z,99.90
2019-05-18T03:39:31.022Z,99.90
2019-05-18T03:42:02.659Z,99.90
2019-05-18T03:44:33.928Z,99.90
2019-05-18T03:47:05.090Z,99.90
2019-05-18T03:49:36.216Z,99.90
2019-05-18T03:52:07.568Z,99.90
2019-05-18T03:54:38.850Z,99.90
2019-05-18T03:57:10.225Z,99.90
2019-05-18T03:59:41.303Z,99.90
2019-05-18T04:02:12.512Z,99.90
2019-05-18T04:04:43.853Z,99.90
2019-05-18T04:07:15.381Z,99.90
2019-05-18T04:09:46.648Z,99.90
2019-05-18T04:12:17.826Z,99.90
2019-05-18T04:14:49.451Z,99.90
2019-05-18T04:17:21.006Z,99.90
2019-05-18T04:19:52.499Z,99.90
2019-05-18T04:22:23.823Z,99.90
2019-05-18T04:24:55.009Z,99.90
2019-05-18T04:27:26.183Z,99.90
2019-05-18T04:29:57.340Z,99.90
2019-05-18T04:32:28.435Z,99.90
2019-05-18T04:34:59.531Z,99.90
2019-05-18T04:37:30.681Z,99.90
2019-05-18T04:40:01.929Z,99.90
2019-05-18T04:42:33.295Z,99.90
2019-05-18T04:45:05.071Z,99.90
2019-05-18T04:47:36.749Z,99.90
2019-05-18T04:50:08.488Z,99.90
2019-05-18T04:52:39.797Z,99.90
2019-05-18T04:55:11.133Z,99.90
2019-05-18T04:57:42.556Z,99.90
2019-05-18T05:00:14.321Z,99.90
2019-05-18T05:02:45.789Z,99.90
2019-05-18T05:05:17.353Z,99.90
2019-05-18T05:07:48.521Z,99.90
2019-05-18T05:10:19.770Z,99.90
2019-05-18T05:12:50.844Z,99.90
2019-05-18T05:15:22.403Z,99.90
2019-05-18T05:17:53.682Z,99.90
2019-05-18T05:20:25.019Z,99.90
2019-05-18T05:22:56.140Z,99.90
2019-05-18T05:25:27.576Z,99.90
2019-05-18T05:27:59.363Z,99.90
2019-05-18T05:30:31.020Z,99.90
2019-05-18T05:33:02.560Z,99.90
2019-05-18T05:35:33.805Z,99.90
2019-05-18T05:38:05.077Z,99.90
2019-05-18T05:40:37.052Z,99.90
2019-05-18T05:43:08.940Z,99.90
2019-05-18T05:45:40.215Z,99.90
2019-05-18T05:48:11.492Z,99.90
2019-05-18T05:50:42.693Z,99.90
2019-05-18T05:53:13.894Z,99.90
2019-05-18T05:55:44.986Z,99.90
2019-05-18T05:58:16.311Z,99.90
2019-05-18T06:00:47.825Z,99.90
2019-05-18T06:03:19.095Z,99.90
2019-05-18T06:05:50.928Z,99.90
2019-05-18T06:08:22.451Z,99.90
2019-05-18T06:10:53.828Z,99.90
2019-05-18T06:13:25.028Z,99.90
2019-05-18T06:15:56.156Z,99.90
2019-05-18T06:18:27.426Z,99.90
2019-05-18T06:20:58.817Z,99.90
2019-05-18T06:23:30.113Z,99.90
2019-05-18T06:26:01.367Z,99.90
2019-05-18T06:28:32.430Z,99.90
2019-05-18T06:31:04.022Z,99.90
2019-05-18T06:33:35.474Z,99.90
2019-05-18T06:36:06.813Z,99.90
2019-05-18T06:38:38.253Z,99.90
2019-05-18T06:41:09.761Z,99.90
2019-05-18T06:43:41.127Z,99.90
2019-05-18T06:46:12.304Z,99.90
2019-05-18T06:48:43.763Z,99.90
2019-05-18T06:51:15.248Z,99.90
2019-05-18T06:53:46.631Z,99.90
2019-05-18T06:56:18.864Z,99.90
2019-05-18T06:58:51.631Z,99.90
2019-05-18T07:01:23.208Z,99.90
2019-05-18T07:03:54.388Z,99.90
2019-05-18T07:06:25.947Z,99.90
2019-05-18T07:08:57.413Z,99.90
2019-05-18T07:11:28.816Z,99.90
2019-05-18T07:14:00.551Z,99.90
2019-05-18T07:16:31.946Z,99.90
2019-05-18T07:19:03.086Z,99.90
2019-05-18T07:21:34.599Z,99.90
2019-05-18T07:24:05.935Z,99.90
2019-05-18T07:26:37.200Z,99.90
2019-05-18T07:29:08.530Z,99.90
2019-05-18T07:31:40.212Z,99.90
2019-05-18T07:34:11.441Z,99.90
2019-05-18T07:36:42.774Z,99.90
2019-05-18T07:39:14.342Z,99.90
2019-05-18T07:41:47.065Z,99.90
2019-05-18T07:44:18.931Z,98.00
2019-05-18T07:46:50.123Z,98.30
2019-05-18T07:49:21.684Z,97.20
2019-05-18T07:51:53.112Z,97.20
2019-05-18T07:54:24.682Z,95.60
2019-05-18T07:56:55.963Z,94.10
2019-05-18T07:59:27.230Z,94.70
2019-05-18T08:01:58.555Z,95.60
2019-05-18T08:04:30.082Z,94.50
2019-05-18T08:07:01.674Z,93.10
2019-05-18T08:09:33.966Z,93.10
2019-05-18T08:12:05.361Z,95.10
2019-05-18T08:14:37.002Z,97.60
2019-05-18T08:17:08.285Z,99.90
2019-05-18T08:19:39.464Z,99.90
2019-05-18T08:22:10.798Z,99.90
2019-05-18T08:24:42.306Z,99.90
2019-05-18T08:27:13.649Z,99.90
2019-05-18T08:29:45.207Z,99.90
2019-05-18T08:32:16.446Z,99.90
2019-05-18T08:34:47.940Z,99.00
2019-05-18T08:37:19.283Z,97.90
2019-05-18T08:39:50.388Z,97.80
2019-05-18T08:42:21.559Z,96.50
2019-05-18T08:44:53.356Z,95.90
2019-05-18T08:47:24.662Z,93.80
2019-05-18T08:49:56.224Z,91.10
2019-05-18T08:52:27.737Z,91.30
2019-05-18T08:54:58.943Z,91.60
2019-05-18T08:57:30.345Z,90.40
2019-05-18T09:00:01.774Z,91.40
2019-05-18T09:02:32.833Z,89.00
2019-05-18T09:05:05.076Z,90.00
2019-05-18T09:07:36.601Z,90.80
2019-05-18T09:10:08.883Z,92.00
2019-05-18T09:12:40.213Z,93.90
2019-05-18T09:15:12.324Z,96.30
2019-05-18T09:17:44.029Z,96.20
2019-05-18T09:20:15.951Z,95.70
2019-05-18T09:22:47.869Z,96.60
2019-05-18T09:25:19.233Z,96.60
2019-05-18T09:27:50.907Z,97.30
2019-05-18T09:30:22.994Z,98.70
2019-05-18T09:32:54.875Z,97.20
2019-05-18T09:35:26.246Z,96.60
2019-05-18T09:37:57.725Z,96.70
2019-05-18T09:40:29.172Z,91.70
2019-05-18T09:43:00.402Z,88.30
2019-05-18T09:45:31.909Z,88.30
2019-05-18T09:48:03.486Z,91.60
2019-05-18T09:50:34.800Z,88.00
2019-05-18T09:53:06.324Z,86.10
2019-05-18T09:55:37.691Z,87.90
2019-05-18T09:58:09.186Z,83.60
2019-05-18T10:00:40.614Z,83.00
2019-05-18T10:03:11.950Z,83.60
2019-05-18T10:05:43.135Z,83.70
2019-05-18T10:08:14.726Z,80.50
2019-05-18T10:10:46.244Z,77.80
2019-05-18T10:13:17.493Z,74.90
2019-05-18T10:15:49.232Z,73.70
2019-05-18T10:18:21.930Z,70.50
2019-05-18T10:20:53.650Z,68.80
2019-05-18T10:23:25.304Z,64.50
2019-05-18T10:25:56.598Z,68.20
2019-05-18T10:28:28.296Z,75.10
2019-05-18T10:30:59.608Z,74.60
2019-05-18T10:33:31.341Z,73.00
2019-05-18T10:36:03.346Z,72.20
2019-05-18T10:38:34.904Z,75.90
2019-05-18T10:41:06.909Z,78.50
2019-05-18T10:43:38.356Z,79.90
2019-05-18T10:46:10.053Z,83.80
2019-05-18T10:48:41.349Z,83.30
2019-05-18T10:51:12.719Z,84.80
2019-05-18T10:53:43.966Z,81.90
2019-05-18T10:56:15.267Z,80.60
2019-05-18T10:58:46.591Z,77.70
2019-05-18T11:01:18.450Z,77.30
2019-05-18T11:03:49.885Z,74.30
2019-05-18T11:06:21.200Z,75.70
2019-05-18T11:08:52.444Z,77.20
2019-05-18T11:11:23.761Z,81.00
2019-05-18T11:13:54.969Z,82.70
2019-05-18T11:16:26.225Z,86.00
2019-05-18T11:18:57.775Z,86.30
2019-05-18T11:21:29.123Z,88.40
2019-05-18T11:24:00.333Z,89.40
2019-05-18T11:26:31.729Z,88.90
2019-05-18T11:29:03.492Z,91.00
2019-05-18T11:31:34.791Z,91.70
2019-05-18T11:34:06.189Z,91.70
2019-05-18T11:36:37.861Z,92.20
2019-05-18T11:39:09.630Z,92.80
2019-05-18T11:41:41.126Z,92.90
2019-05-18T11:44:12.462Z,93.50
2019-05-18T11:46:43.771Z,94.50
2019-05-18T11:49:15.061Z,93.20
2019-05-18T11:51:46.847Z,92.70
2019-05-18T11:54:18.185Z,92.60
2019-05-18T11:56:49.769Z,91.90
2019-05-18T11:59:21.229Z,90.70
2019-05-18T12:01:52.795Z,90.70
2019-05-18T12:04:24.098Z,91.50
2019-05-18T12:06:55.317Z,90.80
2019-05-18T12:09:26.951Z,91.50
2019-05-18T12:11:58.560Z,92.00
2019-05-18T12:14:30.195Z,92.80
2019-05-18T12:17:01.309Z,94.00
2019-05-18T12:19:32.461Z,94.50
2019-05-18T12:22:03.850Z,93.80
2019-05-18T12:24:35.566Z,92.90
2019-05-18T12:27:06.964Z,92.80
2019-05-18T12:29:38.243Z,92.10
2019-05-18T12:32:09.846Z,91.50
2019-05-18T12:34:44.600Z,90.40
2019-05-18T12:37:23.143Z,91.20
2019-05-18T12:39:55.377Z,90.40
2019-05-18T12:42:26.669Z,89.30
2019-05-18T12:44:57.883Z,89.00
2019-05-18T12:47:29.735Z,90.50
2019-05-18T12:50:07.398Z,89.20
2019-05-18T12:52:38.695Z,85.20
2019-05-18T12:55:11.764Z,87.40
2019-05-18T12:57:43.277Z,87.30
2019-05-18T13:00:19.208Z,84.90
2019-05-18T13:02:50.554Z,83.60
2019-05-18T13:05:21.893Z,81.00
2019-05-18T13:07:53.141Z,81.10
2019-05-18T13:10:24.640Z,82.80
2019-05-18T13:12:56.815Z,80.60
2019-05-18T13:15:33.875Z,78.90
2019-05-18T13:18:10.927Z,77.60
2019-05-18T13:20:42.239Z,78.40
2019-05-18T13:23:13.796Z,77.50
2019-05-18T13:25:45.023Z,77.80
2019-05-18T13:28:16.462Z,76.80
2019-05-18T13:30:47.834Z,78.70
2019-05-18T13:33:19.639Z,77.20
2019-05-18T13:35:50.876Z,76.50
2019-05-18T13:38:22.247Z,74.00
2019-05-18T13:40:53.877Z,74.20
2019-05-18T13:43:25.267Z,72.80
2019-05-18T13:45:56.629Z,74.50
2019-05-18T13:48:28.033Z,74.60
2019-05-18T13:50:59.709Z,73.20
2019-05-18T13:53:31.013Z,73.60
2019-05-18T13:56:02.299Z,72.00
2019-05-18T13:58:33.773Z,74.90
2019-05-18T14:01:05.177Z,75.60
2019-05-18T14:03:37.141Z,72.20
2019-05-18T14:06:08.604Z,74.80
2019-05-18T14:08:39.825Z,75.00
2019-05-18T14:11:11.185Z,75.50
2019-05-18T14:13:42.517Z,76.40
2019-05-18T14:16:14.092Z,74.50
2019-05-18T14:18:45.433Z,76.20
2019-05-18T14:21:16.765Z,74.00
2019-05-18T14:23:48.095Z,73.40
2019-05-18T14:26:19.406Z,73.20
2019-05-18T14:28:51.194Z,72.70
2019-05-18T14:31:23.352Z,71.40
2019-05-18T14:33:54.649Z,72.80
2019-05-18T14:36:26.183Z,71.30
2019-05-18T14:38:57.606Z,67.40
2019-05-18T14:41:28.945Z,69.10
2019-05-18T14:44:00.250Z,69.00
2019-05-18T14:46:31.500Z,67.10
2019-05-18T14:49:02.885Z,66.80
2019-05-18T14:51:34.593Z,66.50
2019-05-18T14:54:06.103Z,66.00
2019-05-18T14:56:37.673Z,66.30
2019-05-18T14:59:09.076Z,64.80
2019-05-18T15:01:40.500Z,65.90
2019-05-18T15:04:11.787Z,66.20
2019-05-18T15:06:43.905Z,65.70
2019-05-18T15:09:18.329Z,66.30
2019-05-18T15:11:50.365Z,66.00
2019-05-18T15:14:22.627Z,65.90
2019-05-18T15:16:54.093Z,66.80
2019-05-18T15:19:25.762Z,66.60
2019-05-18T15:21:57.763Z,67.60
2019-05-18T15:24:29.040Z,72.80
2019-05-18T15:27:00.444Z,79.90
2019-05-18T15:29:31.827Z,86.50
2019-05-18T15:32:03.055Z,90.80
2019-05-18T15:34:34.307Z,96.00
2019-05-18T15:37:05.488Z,99.90
2019-05-18T15:39:37.053Z,99.90
2019-05-18T15:42:08.463Z,99.90
2019-05-18T15:44:39.859Z,99.90
2019-05-18T15:47:11.258Z,99.90
2019-05-18T15:49:43.217Z,99.90
2019-05-18T15:52:14.491Z,99.90
2019-05-18T15:54:46.118Z,99.90
2019-05-18T15:57:17.414Z,99.90
2019-05-18T15:59:48.923Z,99.90
2019-05-18T16:02:20.268Z,99.90
2019-05-18T16:04:51.596Z,99.90
2019-05-18T16:07:22.882Z,99.90
2019-05-18T16:09:54.296Z,99.90
2019-05-18T16:12:25.573Z,99.90
2019-05-18T16:14:56.840Z,99.90
2019-05-18T16:17:38.830Z,99.90
2019-05-18T16:20:01.165Z,99.90
2019-05-18T16:22:32.718Z,99.90
2019-05-18T16:25:04.557Z,99.90
2019-05-18T16:27:35.877Z,99.90
2019-05-18T16:30:08.784Z,99.90
2019-05-18T16:32:40.106Z,99.90
2019-05-18T16:35:12.711Z,99.90
2019-05-18T16:37:44.347Z,99.90
2019-05-18T16:40:17.112Z,99.90
2019-05-18T16:42:48.418Z,99.90
2019-05-18T16:45:19.950Z,99.90
2019-05-18T16:47:51.235Z,99.90
2019-05-18T16:50:23.895Z,99.90
2019-05-18T16:52:55.565Z,99.90
2019-05-18T16:55:26.838Z,99.90
2019-05-18T16:57:58.126Z,99.90
2019-05-18T17:00:29.896Z,99.90
2019-05-18T17:03:01.356Z,99.90
2019-05-18T17:05:32.903Z,99.90
2019-05-18T17:08:04.214Z,99.90
2019-05-18T17:10:35.410Z,99.90
2019-05-18T17:13:06.876Z,99.90
2019-05-18T17:15:38.538Z,99.90
2019-05-18T17:18:10.182Z,99.90
2019-05-18T17:20:41.627Z,99.90
2019-05-18T17:23:12.957Z,99.90
2019-05-18T17:25:44.143Z,99.90
2019-05-18T17:28:15.374Z,99.90
2019-05-18T17:30:46.757Z,99.90
2019-05-18T17:33:18.466Z,99.90
2019-05-18T17:36:00.002Z,99.90
2019-05-18T17:38:23.465Z,99.90
2019-05-18T17:40:54.818Z,99.90
2019-05-18T17:43:26.225Z,99.90
2019-05-18T17:45:57.713Z,99.90
2019-05-18T17:48:29.941Z,99.90
2019-05-18T17:51:01.183Z,99.90
2019-05-18T17:53:32.570Z,99.90
2019-05-18T17:56:04.181Z,99.90
2019-05-18T17:58:36.279Z,99.90
2019-05-18T18:01:07.659Z,99.90
2019-05-18T18:03:39.333Z,99.90
2019-05-18T18:06:11.327Z,99.90
2019-05-18T18:08:42.611Z,99.90
2019-05-18T18:11:14.028Z,99.90
2019-05-18T18:13:45.130Z,99.90
2019-05-18T18:16:16.309Z,99.90
2019-05-18T18:18:47.606Z,99.90
2019-05-18T18:21:18.788Z,99.90
2019-05-18T18:23:54.520Z,99.90
2019-05-18T18:26:23.067Z,99.90
2019-05-18T18:28:54.236Z,99.90
2019-05-18T18:31:25.645Z,99.90
2019-05-18T18:33:57.081Z,99.90
2019-05-18T18:36:28.641Z,99.90
2019-05-18T18:38:59.932Z,99.90
2019-05-18T18:41:31.650Z,99.90
2019-05-18T18:44:02.926Z,99.90
2019-05-18T18:46:34.493Z,99.90
2019-05-18T18:49:05.862Z,99.90
2019-05-18T18:51:37.047Z,99.90
2019-05-18T18:54:08.397Z,99.90
2019-05-18T18:56:39.873Z,99.90
2019-05-18T18:59:11.110Z,99.90
2019-05-18T19:01:42.374Z,99.90
2019-05-18T19:04:13.996Z,99.90
2019-05-18T19:06:45.319Z,99.90
2019-05-18T19:09:16.684Z,99.90
2019-05-18T19:11:47.913Z,99.90
2019-05-18T19:14:19.196Z,99.90
2019-05-18T19:16:50.430Z,99.90
2019-05-18T19:19:21.646Z,99.90
2019-05-18T19:21:52.975Z,99.90
2019-05-18T19:24:24.314Z,99.90
2019-05-18T19:26:56.045Z,99.90
2019-05-18T19:29:27.187Z,99.90
2019-05-18T19:31:58.331Z,99.90
2019-05-18T19:34:29.478Z,99.90
2019-05-18T19:37:00.581Z,99.90
2019-05-18T19:39:31.678Z,99.90
2019-05-18T19:42:03.236Z,99.90
2019-05-18T19:44:34.523Z,99.90
2019-05-18T19:47:05.861Z,99.90
2019-05-18T19:49:37.030Z,99.90
2019-05-18T19:52:08.140Z,99.90
2019-05-18T19:54:39.533Z,99.90
2019-05-18T19:57:10.869Z,99.90
2019-05-18T19:59:42.097Z,99.90
2019-05-18T20:02:13.659Z,99.90
2019-05-18T20:05:03.885Z,99.90
2019-05-18T20:07:17.948Z,99.90
2019-05-18T20:09:52.834Z,99.90
2019-05-18T20:12:22.483Z,99.90
2019-05-18T20:14:53.716Z,99.90
2019-05-18T20:17:24.869Z,99.90
2019-05-18T20:19:55.962Z,99.90
2019-05-18T20:22:27.464Z,99.90
2019-05-18T20:24:58.975Z,99.90
2019-05-18T20:27:30.236Z,99.90
2019-05-18T20:30:01.759Z,99.90
2019-05-18T20:32:33.018Z,99.90
2019-05-18T20:35:04.374Z,99.90
2019-05-18T20:37:35.465Z,99.90
2019-05-18T20:40:07.598Z,99.90
2019-05-18T20:42:38.765Z,99.90
2019-05-18T20:45:10.619Z,99.90
2019-05-18T20:47:42.093Z,99.90
2019-05-18T20:50:13.715Z,99.90
2019-05-18T20:52:45.056Z,99.90
2019-05-18T20:55:16.764Z,99.90
2019-05-18T20:57:47.942Z,99.90
2019-05-18T21:00:19.651Z,99.90
2019-05-18T21:02:51.237Z,99.90
2019-05-18T21:05:22.576Z,99.90
2019-05-18T21:07:53.817Z,99.90
2019-05-18T21:10:25.180Z,99.90
2019-05-18T21:12:56.482Z,99.90
2019-05-18T21:15:27.763Z,99.90
2019-05-18T21:17:59.062Z,99.90
2019-05-18T21:20:30.341Z,99.90
2019-05-18T21:23:01.603Z,99.90
2019-05-18T21:25:33.474Z,99.90
2019-05-18T21:28:04.922Z,99.90
2019-05-18T21:30:36.159Z,99.90
2019-05-18T21:33:07.572Z,99.90
2019-05-18T21:35:38.652Z,99.90
2019-05-18T21:38:09.993Z,99.90
2019-05-18T21:40:41.625Z,99.90
2019-05-18T21:43:12.768Z,99.90
2019-05-18T21:45:44.506Z,99.90
2019-05-18T21:48:15.792Z,99.90
2019-05-18T21:50:47.340Z,99.90
2019-05-18T21:53:18.521Z,99.90
2019-05-18T21:55:49.627Z,99.90
2019-05-18T21:58:21.120Z,99.90
2019-05-18T22:00:52.461Z,99.90
2019-05-18T22:03:24.279Z,99.90
2019-05-18T22:05:55.721Z,99.90
2019-05-18T22:08:26.992Z,99.90
2019-05-18T22:10:58.127Z,99.90
2019-05-18T22:13:29.669Z,99.90
2019-05-18T22:16:00.951Z,99.90
2019-05-18T22:18:32.208Z,99.90
2019-05-18T22:21:03.524Z,99.90
2019-05-18T22:23:34.811Z,99.90
2019-05-18T22:26:06.059Z,99.90
2019-05-18T22:28:37.222Z,99.90
2019-05-18T22:31:08.516Z,99.90
2019-05-18T22:33:39.805Z,99.90
2019-05-18T22:36:11.134Z,99.90
2019-05-18T22:38:42.792Z,99.90
2019-05-18T22:41:14.082Z,99.90
2019-05-18T22:43:45.650Z,99.90
2019-05-18T22:46:16.945Z,99.90
2019-05-18T22:48:48.325Z,99.90
2019-05-18T22:51:20.264Z,99.90
2019-05-18T22:53:51.390Z,99.90
2019-05-18T22:56:22.643Z,99.90
2019-05-18T22:58:53.750Z,99.90
2019-05-18T23:01:25.010Z,99.90
2019-05-18T23:03:56.179Z,99.90
2019-05-18T23:06:27.467Z,99.90
2019-05-18T23:08:58.586Z,99.90
2019-05-18T23:11:29.913Z,99.90
2019-05-18T23:14:01.726Z,99.90
2019-05-18T23:16:32.842Z,99.90
2019-05-18T23:19:04.374Z,99.90
2019-05-18T23:21:35.502Z,99.90
2019-05-18T23:24:06.961Z,99.90
2019-05-18T23:26:38.540Z,99.90
2019-05-18T23:29:09.999Z,99.90
2019-05-18T23:31:41.219Z,99.90
2019-05-18T23:34:12.476Z,99.90
2019-05-18T23:36:43.755Z,99.90
2019-05-18T23:39:15.397Z,99.90
2019-05-18T23:41:46.569Z,99.90
2019-05-18T23:44:17.909Z,99.90
2019-05-18T23:46:49.825Z,99.90
2019-05-18T23:49:21.193Z,99.90
2019-05-18T23:51:52.633Z,99.90
2019-05-18T23:54:23.934Z,99.90
2019-05-18T23:56:55.173Z,99.90
2019-05-18T23:59:26.271Z,99.90
